header
chart

Reported and forecast weather at local airports

Important: not to be used for flight planning purposes.


EGBB METAR fetched   Thursday 14th Nov @ 04:37:52
EGBB 140420Z 05013KT 6000 RA SCT007 BKN035 05/04 Q0991 RERA

EGCC METAR fetched   Thursday 14th Nov @ 04:37:43
EGCC 140420Z AUTO 04011KT 9999 FEW016 04/03 Q0995 NOSIG

EGGP METAR fetched   Thursday 14th Nov @ 04:37:45
EGGP 140420Z 04013KT CAVOK 05/04 Q0995

EGNH METAR fetched   Thursday 14th Nov @ 04:37:47
EGNH 132050Z 10013KT CAVOK 04/02 Q0992

EGNM METAR fetched   Thursday 14th Nov @ 04:37:50
EGNM 140420Z 04009KT 010V090 9999 FEW021 SCT025 03/02 Q0996

EGOV METAR fetched   Thursday 14th Nov @ 04:37:54
EGOV 140350Z AUTO 05019KT 9999 SCT021/// BKN210/// 07/03 Q0994


EGBB TAF fetched   Thursday 14th Nov @ 04:37:53
TAF AMD EGBB 140347Z 1403/1424 03013KT 9999 SCT008 BKN016 TEMPO 1403/1418 6000 RA BKN007 PROB40 TEMPO 1403/1415 3000 +RA PROB40 TEMPO 1406/1418 04017G27KT TEMPO 1418/1424 8000 -RA BKN008

EGCC TAF fetched   Thursday 14th Nov @ 04:37:44
TAF AMD EGCC 131917Z 1319/1424 VRB05KT 7000 FEW030 PROB30 1319/1321 4000 BR BECMG 1321/1324 09010KT 9999 BECMG 1403/1406 36010KT PROB40 TEMPO 1409/1419 02016G26KT PROB40 TEMPO 1418/1424 7000 SHRA BKN014

EGGP TAF fetched   Thursday 14th Nov @ 04:37:46
TAF TAF EGGP 131656Z 1318/1418 11009KT 9999 SCT025 BECMG 1321/1324 05010KT BECMG 1402/1405 35012KT PROB30 TEMPO 1412/1418 01015G25KT

EGNM TAF fetched   Thursday 14th Nov @ 04:37:51
TAF AMD EGNM 140108Z 1401/1424 03009KT 9999 SCT025 PROB30 TEMPO 1401/1412 8000 BKN008 TEMPO 1408/1419 04018G28KT PROB30 TEMPO 1412/1415 8000 SHRA BKN012 TEMPO 1415/1424 6000 RA BKN008 PROB40 TEMPO 1415/1421 4000 +SHRA BKN004

EGOV TAF fetched   Thursday 14th Nov @ 04:37:56
TAF TAF EGOV 190525Z 1906/1918 04008KT CAVOK PROB30 TEMPO 1906/1912 6000 SHRA TEMPO 1912/1915 4000 +SHRA SCT020 BKN030CB PROB30 TEMPO 1913/1915 VRBG20G30KT 2500 TSGR BKN012

Every effort is made to ensure that this information is free from errors but as it is provided by a third party the accuracy of the reports cannot be guaranteed.